Johnson, Kansas
Current Conditions -  °F | °C
As of 10:15 AM on Sunday 25 Jan 2015 (Local Time) from K3K3 Reporting Station
Clear Clear  
Wind Chill: 37°   Ceiling: Unl
Heat Index: 45°   Visibility: 10mi
Dew Point: 32°   Wind: 17mph
Humidity: 61%   Direction: 300°WNW
Pressure: 30.16"   Gusts: 25mph
Location:  37.57°N, 101.75°W
Report Text: K3K3 251615Z AUTO 30015G22KT 10SM CLR 07/00 A3016 RMK AO2
Loading
Personal Weather Stations






























Interactive Weather Map New forecast layout! Learn more

10-Day Weather Forecast

Advertisements
Track Severe Weather on mobile